sensor_id;sensor_type;location;lat;lon;timestamp;pressure;altitude;pressure_sealevel;temperature;humidity
43745;BME280;29359;53.048;8.732;2023-06-19T00:01:11;101124.16;;;22.40;51.94
43745;BME280;29359;53.048;8.732;2023-06-19T00:03:12;101119.84;;;22.37;52.11
43745;BME280;29359;53.048;8.732;2023-06-19T00:05:14;101117.38;;;22.34;51.84
43745;BME280;29359;53.048;8.732;2023-06-19T00:07:15;101117.50;;;22.33;52.11
43745;BME280;29359;53.048;8.732;2023-06-19T00:09:17;101115.78;;;22.32;52.05
43745;BME280;29359;53.048;8.732;2023-06-19T00:11:19;101108.78;;;22.29;51.94
43745;BME280;29359;53.048;8.732;2023-06-19T00:13:20;101101.81;;;22.27;52.31
43745;BME280;29359;53.048;8.732;2023-06-19T00:15:22;101102.91;;;22.24;52.30
43745;BME280;29359;53.048;8.732;2023-06-19T00:17:24;101097.63;;;22.22;52.20
43745;BME280;29359;53.048;8.732;2023-06-19T00:19:27;101094.19;;;22.20;52.71
43745;BME280;29359;53.048;8.732;2023-06-19T00:21:29;101093.44;;;22.18;52.66
43745;BME280;29359;53.048;8.732;2023-06-19T00:23:31;101097.31;;;22.14;52.37
43745;BME280;29359;53.048;8.732;2023-06-19T00:25:32;101092.16;;;22.11;52.85
43745;BME280;29359;53.048;8.732;2023-06-19T00:27:34;101092.38;;;22.08;52.85
43745;BME280;29359;53.048;8.732;2023-06-19T00:29:35;101097.97;;;22.05;52.74
43745;BME280;29359;53.048;8.732;2023-06-19T00:31:37;101088.25;;;22.03;52.82
43745;BME280;29359;53.048;8.732;2023-06-19T00:33:39;101104.50;;;22.01;52.51
43745;BME280;29359;53.048;8.732;2023-06-19T00:35:41;101099.22;;;22.00;52.79
43745;BME280;29359;53.048;8.732;2023-06-19T00:37:43;101100.19;;;21.99;52.91
43745;BME280;29359;53.048;8.732;2023-06-19T00:39:48;101093.22;;;21.96;52.92
43745;BME280;29359;53.048;8.732;2023-06-19T00:41:51;101089.66;;;21.95;53.00
43745;BME280;29359;53.048;8.732;2023-06-19T00:43:53;101092.47;;;21.94;52.96
43745;BME280;29359;53.048;8.732;2023-06-19T00:45:57;101081.94;;;21.91;53.24
43745;BME280;29359;53.048;8.732;2023-06-19T00:47:59;101077.75;;;21.87;52.84
43745;BME280;29359;53.048;8.732;2023-06-19T00:50:01;101086.03;;;21.84;53.01
43745;BME280;29359;53.048;8.732;2023-06-19T00:52:03;101081.63;;;21.83;53.15
43745;BME280;29359;53.048;8.732;2023-06-19T00:54:05;101072.72;;;21.82;52.95
43745;BME280;29359;53.048;8.732;2023-06-19T00:56:07;101069.38;;;21.79;53.36
43745;BME280;29359;53.048;8.732;2023-06-19T00:58:09;101060.69;;;21.75;53.04
43745;BME280;29359;53.048;8.732;2023-06-19T01:00:11;101053.69;;;21.73;53.28
43745;BME280;29359;53.048;8.732;2023-06-19T01:02:14;101048.53;;;21.70;52.76
43745;BME280;29359;53.048;8.732;2023-06-19T01:04:16;101047.69;;;21.69;52.78
43745;BME280;29359;53.048;8.732;2023-06-19T01:06:22;101044.22;;;21.67;53.02
43745;BME280;29359;53.048;8.732;2023-06-19T01:08:51;101046.91;;;21.67;53.27
43745;BME280;29359;53.048;8.732;2023-06-19T01:10:58;101046.25;;;21.63;52.94
43745;BME280;29359;53.048;8.732;2023-06-19T01:13:13;101041.75;;;21.64;52.57
43745;BME280;29359;53.048;8.732;2023-06-19T01:15:17;101042.81;;;21.61;52.56
43745;BME280;29359;53.048;8.732;2023-06-19T01:17:20;101042.72;;;21.63;52.51
43745;BME280;29359;53.048;8.732;2023-06-19T01:19:22;101042.94;;;21.60;52.72
43745;BME280;29359;53.048;8.732;2023-06-19T01:21:24;101042.94;;;21.60;52.09
43745;BME280;29359;53.048;8.732;2023-06-19T01:23:27;101040.25;;;21.60;52.12
43745;BME280;29359;53.048;8.732;2023-06-19T01:25:28;101042.94;;;21.60;51.83
43745;BME280;29359;53.048;8.732;2023-06-19T01:27:31;101047.34;;;21.61;52.08
43745;BME280;29359;53.048;8.732;2023-06-19T01:29:33;101048.19;;;21.61;52.02
43745;BME280;29359;53.048;8.732;2023-06-19T01:31:45;101040.13;;;21.61;51.70
43745;BME280;29359;53.048;8.732;2023-06-19T01:33:47;101033.78;;;21.62;52.12
43745;BME280;29359;53.048;8.732;2023-06-19T01:35:51;101028.41;;;21.62;52.27
43745;BME280;29359;53.048;8.732;2023-06-19T01:37:53;101033.91;;;21.61;52.23
43745;BME280;29359;53.048;8.732;2023-06-19T01:39:57;101041.22;;;21.59;52.06
43745;BME280;29359;53.048;8.732;2023-06-19T01:42:00;101029.59;;;21.58;52.19
43745;BME280;29359;53.048;8.732;2023-06-19T01:44:02;101025.94;;;21.59;52.38
43745;BME280;29359;53.048;8.732;2023-06-19T01:46:04;101019.94;;;21.56;52.44
43745;BME280;29359;53.048;8.732;2023-06-19T01:48:05;101017.38;;;21.54;52.36
43745;BME280;29359;53.048;8.732;2023-06-19T01:50:07;101021.03;;;21.53;52.51
43745;BME280;29359;53.048;8.732;2023-06-19T01:52:09;101020.03;;;21.54;52.49
43745;BME280;29359;53.048;8.732;2023-06-19T01:54:11;101005.88;;;21.52;52.80
43745;BME280;29359;53.048;8.732;2023-06-19T01:56:12;101012.31;;;21.50;52.45
43745;BME280;29359;53.048;8.732;2023-06-19T01:58:14;100999.00;;;21.48;52.58
43745;BME280;29359;53.048;8.732;2023-06-19T02:00:16;100998.13;;;21.48;52.71
43745;BME280;29359;53.048;8.732;2023-06-19T02:02:17;101000.94;;;21.46;52.40
43745;BME280;29359;53.048;8.732;2023-06-19T02:04:19;101004.69;;;21.44;52.29
43745;BME280;29359;53.048;8.732;2023-06-19T02:06:20;101009.09;;;21.45;52.70
43745;BME280;29359;53.048;8.732;2023-06-19T02:08:23;101002.66;;;21.47;52.34
43745;BME280;29359;53.048;8.732;2023-06-19T02:10:24;101006.31;;;21.46;52.46
43745;BME280;29359;53.048;8.732;2023-06-19T02:12:26;101006.31;;;21.46;52.18
43745;BME280;29359;53.048;8.732;2023-06-19T02:14:28;100996.53;;;21.45;52.26
43745;BME280;29359;53.048;8.732;2023-06-19T02:16:29;100992.88;;;21.46;52.38
43745;BME280;29359;53.048;8.732;2023-06-19T02:18:31;101002.88;;;21.44;52.42
43745;BME280;29359;53.048;8.732;2023-06-19T02:20:33;100993.09;;;21.43;51.98
43745;BME280;29359;53.048;8.732;2023-06-19T02:22:35;100991.25;;;21.44;52.23
43745;BME280;29359;53.048;8.732;2023-06-19T02:24:37;100988.69;;;21.42;52.51
43745;BME280;29359;53.048;8.732;2023-06-19T02:26:40;100990.50;;;21.42;52.56
43745;BME280;29359;53.048;8.732;2023-06-19T02:28:42;100990.63;;;21.40;52.47
43745;BME280;29359;53.048;8.732;2023-06-19T02:30:44;100992.56;;;21.38;52.48
43745;BME280;29359;53.048;8.732;2023-06-19T02:32:45;100992.78;;;21.35;52.73
43745;BME280;29359;53.048;8.732;2023-06-19T02:34:47;100989.88;;;21.25;52.46
43745;BME280;29359;53.048;8.732;2023-06-19T02:36:48;100995.41;;;21.22;52.99
43745;BME280;29359;53.048;8.732;2023-06-19T02:38:50;100996.69;;;21.17;52.91
43745;BME280;29359;53.048;8.732;2023-06-19T02:40:51;100995.31;;;21.11;53.68
43745;BME280;29359;53.048;8.732;2023-06-19T02:42:53;100996.38;;;21.09;53.55
43745;BME280;29359;53.048;8.732;2023-06-19T02:44:54;100989.28;;;21.08;53.62
43745;BME280;29359;53.048;8.732;2023-06-19T02:47:04;100998.09;;;21.10;53.65
43745;BME280;29359;53.048;8.732;2023-06-19T02:49:06;100990.91;;;21.10;53.92
43745;BME280;29359;53.048;8.732;2023-06-19T02:51:07;100989.06;;;21.11;53.58
43745;BME280;29359;53.048;8.732;2023-06-19T02:53:09;100982.00;;;21.10;53.67
43745;BME280;29359;53.048;8.732;2023-06-19T02:55:10;100978.22;;;21.12;53.65
43745;BME280;29359;53.048;8.732;2023-06-19T02:57:12;100978.22;;;21.12;53.58
43745;BME280;29359;53.048;8.732;2023-06-19T02:59:13;100971.03;;;21.13;53.58
43745;BME280;29359;53.048;8.732;2023-06-19T03:01:15;100975.53;;;21.12;53.25
43745;BME280;29359;53.048;8.732;2023-06-19T03:03:17;100976.50;;;21.11;53.36
43745;BME280;29359;53.048;8.732;2023-06-19T03:05:18;100976.50;;;21.11;53.58
43745;BME280;29359;53.048;8.732;2023-06-19T03:07:20;100980.16;;;21.10;53.46
43745;BME280;29359;53.048;8.732;2023-06-19T03:09:22;100972.09;;;21.10;53.56
43745;BME280;29359;53.048;8.732;2023-06-19T03:11:23;100980.06;;;21.12;53.28
43745;BME280;29359;53.048;8.732;2023-06-19T03:13:25;100975.00;;;21.07;53.35
43745;BME280;29359;53.048;8.732;2023-06-19T03:15:26;100981.44;;;21.05;53.54
43745;BME280;29359;53.048;8.732;2023-06-19T03:17:28;100979.72;;;21.04;53.50
43745;BME280;29359;53.048;8.732;2023-06-19T03:19:30;100974.38;;;21.04;53.42
43745;BME280;29359;53.048;8.732;2023-06-19T03:21:31;100978.88;;;21.03;53.25
43745;BME280;29359;53.048;8.732;2023-06-19T03:23:33;100995.09;;;21.01;53.61
43745;BME280;29359;53.048;8.732;2023-06-19T03:25:34;100984.56;;;20.98;53.74
43745;BME280;29359;53.048;8.732;2023-06-19T03:27:36;100987.47;;;20.95;54.12
43745;BME280;29359;53.048;8.732;2023-06-19T03:29:38;100987.47;;;20.95;53.78
43745;BME280;29359;53.048;8.732;2023-06-19T03:31:39;100993.69;;;20.96;53.96
43745;BME280;29359;53.048;8.732;2023-06-19T03:33:41;101001.63;;;20.97;53.95
43745;BME280;29359;53.048;8.732;2023-06-19T03:35:43;101007.00;;;20.97;53.79
43745;BME280;29359;53.048;8.732;2023-06-19T03:37:45;101007.09;;;20.96;53.81
43745;BME280;29359;53.048;8.732;2023-06-19T03:39:46;100999.91;;;20.96;53.85
43745;BME280;29359;53.048;8.732;2023-06-19T03:41:48;101005.19;;;20.98;53.92
43745;BME280;29359;53.048;8.732;2023-06-19T03:43:49;100997.97;;;20.98;53.77
43745;BME280;29359;53.048;8.732;2023-06-19T03:45:51;100988.97;;;20.99;53.67
43745;BME280;29359;53.048;8.732;2023-06-19T03:47:53;100996.06;;;21.00;53.84
43745;BME280;29359;53.048;8.732;2023-06-19T03:49:54;100997.03;;;20.99;54.31
43745;BME280;29359;53.048;8.732;2023-06-19T03:51:56;101001.53;;;20.99;54.32
43745;BME280;29359;53.048;8.732;2023-06-19T03:53:57;100996.28;;;20.97;54.39
43745;BME280;29359;53.048;8.732;2023-06-19T03:55:59;100993.69;;;20.96;54.54
43745;BME280;29359;53.048;8.732;2023-06-19T03:58:01;101001.00;;;20.94;54.64
43745;BME280;29359;53.048;8.732;2023-06-19T04:00:03;100998.31;;;20.94;54.40
43745;BME280;29359;53.048;8.732;2023-06-19T04:02:08;101000.22;;;20.92;54.25
43745;BME280;29359;53.048;8.732;2023-06-19T04:04:10;101011.06;;;20.90;54.60
43745;BME280;29359;53.048;8.732;2023-06-19T04:06:12;101008.38;;;20.90;54.61
43745;BME280;29359;53.048;8.732;2023-06-19T04:08:13;101002.16;;;20.90;54.46
43745;BME280;29359;53.048;8.732;2023-06-19T04:10:15;101008.38;;;20.90;54.59
43745;BME280;29359;53.048;8.732;2023-06-19T04:12:17;101011.06;;;20.90;54.63
43745;BME280;29359;53.048;8.732;2023-06-19T04:14:18;101009.47;;;20.88;55.36
43745;BME280;29359;53.048;8.732;2023-06-19T04:16:20;101013.13;;;20.87;55.59
43745;BME280;29359;53.048;8.732;2023-06-19T04:18:21;101004.41;;;20.83;55.72
43745;BME280;29359;53.048;8.732;2023-06-19T04:20:23;101010.75;;;20.82;55.59
43745;BME280;29359;53.048;8.732;2023-06-19T04:22:25;101008.91;;;20.83;55.60
43745;BME280;29359;53.048;8.732;2023-06-19T04:24:27;101009.78;;;20.83;55.69
43745;BME280;29359;53.048;8.732;2023-06-19T04:26:28;101021.38;;;20.84;55.71
43745;BME280;29359;53.048;8.732;2023-06-19T04:28:30;101009.78;;;20.83;55.96
43745;BME280;29359;53.048;8.732;2023-06-19T04:30:31;101016.00;;;20.84;55.56
43745;BME280;29359;53.048;8.732;2023-06-19T04:32:33;101007.84;;;20.85;55.96
43745;BME280;29359;53.048;8.732;2023-06-19T04:34:37;101009.47;;;20.88;55.56
43745;BME280;29359;53.048;8.732;2023-06-19T04:36:39;101012.16;;;20.88;55.66
43745;BME280;29359;53.048;8.732;2023-06-19T04:38:41;101020.09;;;20.89;55.59
43745;BME280;29359;53.048;8.732;2023-06-19T04:40:43;101011.84;;;20.92;55.24
43745;BME280;29359;53.048;8.732;2023-06-19T04:42:44;101008.94;;;20.95;54.82
43745;BME280;29359;53.048;8.732;2023-06-19T04:44:46;101005.28;;;20.96;55.01
43745;BME280;29359;53.048;8.732;2023-06-19T04:46:48;101006.03;;;20.98;55.00
43745;BME280;29359;53.048;8.732;2023-06-19T04:48:50;101007.97;;;20.96;55.64
43745;BME280;29359;53.048;8.732;2023-06-19T04:50:52;101006.03;;;20.98;55.25
43745;BME280;29359;53.048;8.732;2023-06-19T04:52:53;101005.06;;;20.99;55.35
43745;BME280;29359;53.048;8.732;2023-06-19T04:54:55;101007.75;;;20.99;55.15
43745;BME280;29359;53.048;8.732;2023-06-19T04:56:56;101006.78;;;21.00;55.25
43745;BME280;29359;53.048;8.732;2023-06-19T04:58:58;100999.59;;;21.01;55.24
43745;BME280;29359;53.048;8.732;2023-06-19T05:01:01;101009.25;;;21.04;55.31
43745;BME280;29359;53.048;8.732;2023-06-19T05:03:02;101002.19;;;21.02;55.62
43745;BME280;29359;53.048;8.732;2023-06-19T05:05:04;101008.41;;;21.03;56.20
43745;BME280;29359;53.048;8.732;2023-06-19T05:07:06;100999.28;;;21.06;56.21
43745;BME280;29359;53.048;8.732;2023-06-19T05:09:07;101003.47;;;21.10;56.12
43745;BME280;29359;53.048;8.732;2023-06-19T05:11:09;101000.47;;;21.14;55.82
43745;BME280;29359;53.048;8.732;2023-06-19T05:13:11;101003.56;;;21.21;55.90
43745;BME280;29359;53.048;8.732;2023-06-19T05:15:12;101001.56;;;21.24;56.02
43745;BME280;29359;53.048;8.732;2023-06-19T05:17:14;101001.38;;;21.27;55.88
43745;BME280;29359;53.048;8.732;2023-06-19T05:19:16;101010.41;;;21.26;56.25
43745;BME280;29359;53.048;8.732;2023-06-19T05:21:17;101011.25;;;21.27;55.31
43745;BME280;29359;53.048;8.732;2023-06-19T05:23:20;101012.97;;;21.28;55.63
43745;BME280;29359;53.048;8.732;2023-06-19T05:25:21;101015.66;;;21.28;55.73
43745;BME280;29359;53.048;8.732;2023-06-19T05:27:29;101008.56;;;21.27;55.79
43745;BME280;29359;53.048;8.732;2023-06-19T05:29:32;101006.63;;;21.29;55.73
43745;BME280;29359;53.048;8.732;2023-06-19T05:31:34;101006.44;;;21.32;55.56
43745;BME280;29359;53.048;8.732;2023-06-19T05:33:35;101004.50;;;21.34;55.18
43745;BME280;29359;53.048;8.732;2023-06-19T05:35:37;101003.53;;;21.35;55.95
43745;BME280;29359;53.048;8.732;2023-06-19T05:37:38;101003.41;;;21.37;55.70
43745;BME280;29359;53.048;8.732;2023-06-19T05:39:40;101017.38;;;21.42;55.86
43745;BME280;29359;53.048;8.732;2023-06-19T05:41:42;101019.00;;;21.44;55.84
43745;BME280;29359;53.048;8.732;2023-06-19T05:43:47;101025.84;;;21.48;55.87
43745;BME280;29359;53.048;8.732;2023-06-19T05:45:48;101024.88;;;21.49;55.68
43745;BME280;29359;53.048;8.732;2023-06-19T05:47:50;101035.75;;;21.48;56.52
43745;BME280;29359;53.048;8.732;2023-06-19T05:49:51;101036.81;;;21.45;56.37
43745;BME280;29359;53.048;8.732;2023-06-19T05:51:53;101032.31;;;21.46;56.33
43745;BME280;29359;53.048;8.732;2023-06-19T05:53:54;101028.97;;;21.42;57.25
43745;BME280;29359;53.048;8.732;2023-06-19T05:56:01;101030.69;;;21.43;56.82
43745;BME280;29359;53.048;8.732;2023-06-19T05:58:02;101033.16;;;21.46;56.83
43745;BME280;29359;53.048;8.732;2023-06-19T06:00:05;101031.13;;;21.50;56.95
43745;BME280;29359;53.048;8.732;2023-06-19T06:02:08;101035.31;;;21.54;56.96
43745;BME280;29359;53.048;8.732;2023-06-19T06:04:09;101035.19;;;21.55;56.96
43745;BME280;29359;53.048;8.732;2023-06-19T06:06:11;101042.50;;;21.53;57.57
43745;BME280;29359;53.048;8.732;2023-06-19T06:08:12;101041.66;;;21.53;57.29
43745;BME280;29359;53.048;8.732;2023-06-19T06:10:14;101039.81;;;21.53;57.62
43745;BME280;29359;53.048;8.732;2023-06-19T06:12:18;101046.81;;;21.56;57.50
43745;BME280;29359;53.048;8.732;2023-06-19T06:14:19;101042.72;;;21.63;57.34
43745;BME280;29359;53.048;8.732;2023-06-19T06:16:21;101039.63;;;21.69;57.55
43745;BME280;29359;53.048;8.732;2023-06-19T06:18:22;101047.25;;;21.75;57.31
43745;BME280;29359;53.048;8.732;2023-06-19T06:20:24;101046.47;;;21.86;56.89
43745;BME280;29359;53.048;8.732;2023-06-19T06:22:26;101054.94;;;21.92;56.53
43745;BME280;29359;53.048;8.732;2023-06-19T06:24:28;101053.41;;;22.01;55.77
43745;BME280;29359;53.048;8.732;2023-06-19T06:26:29;101058.72;;;22.15;55.21
43745;BME280;29359;53.048;8.732;2023-06-19T06:28:31;101054.66;;;22.34;54.75
43745;BME280;29359;53.048;8.732;2023-06-19T06:30:33;101061.34;;;22.52;54.30
43745;BME280;29359;53.048;8.732;2023-06-19T06:32:34;101065.72;;;22.66;53.92
43745;BME280;29359;53.048;8.732;2023-06-19T06:34:36;101072.25;;;22.74;54.11
43745;BME280;29359;53.048;8.732;2023-06-19T06:36:38;101074.41;;;22.82;55.05
43745;BME280;29359;53.048;8.732;2023-06-19T06:38:53;101080.06;;;22.90;55.04
43745;BME280;29359;53.048;8.732;2023-06-19T06:40:54;101074.91;;;22.87;54.06
43745;BME280;29359;53.048;8.732;2023-06-19T06:42:56;101083.22;;;22.84;54.72
43745;BME280;29359;53.048;8.732;2023-06-19T06:44:58;101082.34;;;22.83;55.04
43745;BME280;29359;53.048;8.732;2023-06-19T06:46:59;101083.31;;;22.82;55.10
43745;BME280;29359;53.048;8.732;2023-06-19T06:49:01;101085.91;;;22.84;55.63
43745;BME280;29359;53.048;8.732;2023-06-19T06:51:03;101082.88;;;22.88;55.83
43745;BME280;29359;53.048;8.732;2023-06-19T06:53:04;101088.63;;;22.95;56.62
43745;BME280;29359;53.048;8.732;2023-06-19T06:55:06;101085.75;;;22.98;56.42
43745;BME280;29359;53.048;8.732;2023-06-19T06:57:07;101086.25;;;23.03;56.48
43745;BME280;29359;53.048;8.732;2023-06-19T06:59:09;101091.41;;;23.06;56.40
43745;BME280;29359;53.048;8.732;2023-06-19T07:01:10;101099.13;;;23.11;56.41
43745;BME280;29359;53.048;8.732;2023-06-19T07:03:12;101088.84;;;23.16;56.32
43745;BME280;29359;53.048;8.732;2023-06-19T07:05:14;101095.50;;;23.23;55.87
43745;BME280;29359;53.048;8.732;2023-06-19T07:07:16;101104.81;;;23.30;55.42
43745;BME280;29359;53.048;8.732;2023-06-19T07:09:17;101096.13;;;23.38;55.11
43745;BME280;29359;53.048;8.732;2023-06-19T07:11:19;101100.94;;;23.45;54.48
43745;BME280;29359;53.048;8.732;2023-06-19T07:13:21;101101.22;;;23.54;55.29
43745;BME280;29359;53.048;8.732;2023-06-19T07:15:22;101098.06;;;23.60;55.63
43745;BME280;29359;53.048;8.732;2023-06-19T07:17:24;101097.22;;;23.70;54.74
43745;BME280;29359;53.048;8.732;2023-06-19T07:19:25;101096.09;;;23.84;55.08
43745;BME280;29359;53.048;8.732;2023-06-19T07:21:28;101092.22;;;23.99;54.43
43745;BME280;29359;53.048;8.732;2023-06-19T07:23:29;101084.09;;;24.10;53.66
43745;BME280;29359;53.048;8.732;2023-06-19T07:25:31;101079.19;;;24.16;53.73
43745;BME280;29359;53.048;8.732;2023-06-19T07:27:35;101088.88;;;24.18;53.96
43745;BME280;29359;53.048;8.732;2023-06-19T07:29:37;101091.44;;;24.20;54.24
43745;BME280;29359;53.048;8.732;2023-06-19T07:31:38;101091.19;;;24.23;54.51
43745;BME280;29359;53.048;8.732;2023-06-19T07:33:40;101087.09;;;24.30;55.13
43745;BME280;29359;53.048;8.732;2023-06-19T07:35:41;101094.56;;;24.37;54.57
43745;BME280;29359;53.048;8.732;2023-06-19T07:37:44;101095.13;;;24.52;54.07
43745;BME280;29359;53.048;8.732;2023-06-19T07:39:47;101090.66;;;24.62;53.28
43745;BME280;29359;53.048;8.732;2023-06-19T07:41:49;101092.72;;;24.70;52.98
43745;BME280;29359;53.048;8.732;2023-06-19T07:43:50;101086.00;;;24.76;53.34
43745;BME280;29359;53.048;8.732;2023-06-19T07:45:52;101084.63;;;24.81;53.40
43745;BME280;29359;53.048;8.732;2023-06-19T07:47:57;101087.06;;;24.84;53.37
43745;BME280;29359;53.048;8.732;2023-06-19T07:49:59;101086.94;;;24.86;53.65
43745;BME280;29359;53.048;8.732;2023-06-19T07:52:00;101082.13;;;24.89;53.39
43745;BME280;29359;53.048;8.732;2023-06-19T07:54:02;101085.56;;;24.91;53.16
43745;BME280;29359;53.048;8.732;2023-06-19T07:56:04;101085.28;;;24.94;53.30
43745;BME280;29359;53.048;8.732;2023-06-19T07:58:05;101080.50;;;24.98;52.96
43745;BME280;29359;53.048;8.732;2023-06-19T08:00:07;101078.53;;;25.00;53.21
43745;BME280;29359;53.048;8.732;2023-06-19T08:02:12;101087.63;;;24.99;53.41
43745;BME280;29359;53.048;8.732;2023-06-19T08:04:14;101086.50;;;25.01;53.77
43745;BME280;29359;53.048;8.732;2023-06-19T08:06:16;101091.84;;;25.13;53.46
43745;BME280;29359;53.048;8.732;2023-06-19T08:08:17;101087.00;;;25.27;53.53
43745;BME280;29359;53.048;8.732;2023-06-19T08:10:19;101094.06;;;25.40;53.09
43745;BME280;29359;53.048;8.732;2023-06-19T08:12:20;101095.50;;;25.44;52.11
43745;BME280;29359;53.048;8.732;2023-06-19T08:14:22;101099.34;;;25.41;51.81
43745;BME280;29359;53.048;8.732;2023-06-19T08:16:25;101102.63;;;25.45;52.05
43745;BME280;29359;53.048;8.732;2023-06-19T08:18:27;101094.44;;;25.56;51.83
43745;BME280;29359;53.048;8.732;2023-06-19T08:20:29;101095.16;;;25.58;52.30
43745;BME280;29359;53.048;8.732;2023-06-19T08:22:31;101098.34;;;25.63;51.88
43745;BME280;29359;53.048;8.732;2023-06-19T08:24:33;101095.41;;;25.66;52.17
43745;BME280;29359;53.048;8.732;2023-06-19T08:26:35;101096.63;;;25.62;52.22
43745;BME280;29359;53.048;8.732;2023-06-19T08:28:37;101098.97;;;25.66;52.61
43745;BME280;29359;53.048;8.732;2023-06-19T08:30:39;101095.28;;;25.67;52.04
43745;BME280;29359;53.048;8.732;2023-06-19T08:32:40;101098.13;;;25.66;51.77
43745;BME280;29359;53.048;8.732;2023-06-19T08:34:42;101101.53;;;25.68;51.86
43745;BME280;29359;53.048;8.732;2023-06-19T08:36:44;101092.69;;;25.66;52.68
43745;BME280;29359;53.048;8.732;2023-06-19T08:38:45;101102.75;;;25.64;52.80
43745;BME280;29359;53.048;8.732;2023-06-19T08:40:50;101106.72;;;25.60;52.61
43745;BME280;29359;53.048;8.732;2023-06-19T08:42:52;101104.47;;;25.65;52.99
43745;BME280;29359;53.048;8.732;2023-06-19T08:44:53;101107.41;;;25.73;52.82
43745;BME280;29359;53.048;8.732;2023-06-19T08:46:57;101105.31;;;25.86;52.85
43745;BME280;29359;53.048;8.732;2023-06-19T08:48:59;101106.34;;;25.95;51.64
43745;BME280;29359;53.048;8.732;2023-06-19T08:51:02;101105.09;;;25.99;52.32
43745;BME280;29359;53.048;8.732;2023-06-19T08:53:05;101108.31;;;26.14;52.63
43745;BME280;29359;53.048;8.732;2023-06-19T08:55:08;101101.47;;;26.19;51.36
43745;BME280;29359;53.048;8.732;2023-06-19T08:57:10;101099.34;;;26.23;51.77
43745;BME280;29359;53.048;8.732;2023-06-19T08:59:15;101106.13;;;26.38;51.37
43745;BME280;29359;53.048;8.732;2023-06-19T09:01:18;101103.03;;;26.52;51.38
43745;BME280;29359;53.048;8.732;2023-06-19T09:03:21;101108.19;;;26.65;51.19
43745;BME280;29359;53.048;8.732;2023-06-19T09:05:23;101107.78;;;26.70;49.34
43745;BME280;29359;53.048;8.732;2023-06-19T09:07:25;101121.88;;;26.73;50.46
43745;BME280;29359;53.048;8.732;2023-06-19T09:09:27;101130.00;;;26.73;49.14
43745;BME280;29359;53.048;8.732;2023-06-19T09:11:29;101125.88;;;26.69;49.06
43745;BME280;29359;53.048;8.732;2023-06-19T09:13:31;101122.31;;;26.69;49.25
43745;BME280;29359;53.048;8.732;2023-06-19T09:15:37;101124.16;;;26.68;49.18
43745;BME280;29359;53.048;8.732;2023-06-19T09:17:39;101128.31;;;26.72;48.96
43745;BME280;29359;53.048;8.732;2023-06-19T09:19:48;101129.59;;;26.78;48.44
43745;BME280;29359;53.048;8.732;2023-06-19T09:21:50;101134.88;;;26.79;49.34
43745;BME280;29359;53.048;8.732;2023-06-19T09:23:51;101121.19;;;26.81;49.18
43745;BME280;29359;53.048;8.732;2023-06-19T09:25:54;101128.59;;;26.79;49.55
43745;BME280;29359;53.048;8.732;2023-06-19T09:27:58;101125.88;;;26.79;49.28
43745;BME280;29359;53.048;8.732;2023-06-19T09:30:00;101126.03;;;26.87;49.73
43745;BME280;29359;53.048;8.732;2023-06-19T09:32:02;101126.44;;;26.82;47.97
43745;BME280;29359;53.048;8.732;2023-06-19T09:34:04;101129.28;;;26.71;48.68
43745;BME280;29359;53.048;8.732;2023-06-19T09:36:06;101129.03;;;26.84;49.60
43745;BME280;29359;53.048;8.732;2023-06-19T09:38:08;101127.81;;;27.07;49.64
43745;BME280;29359;53.048;8.732;2023-06-19T09:40:10;101128.34;;;27.30;48.73
43745;BME280;29359;53.048;8.732;2023-06-19T09:42:13;101126.19;;;27.53;48.01
43745;BME280;29359;53.048;8.732;2023-06-19T09:44:16;101130.47;;;27.65;48.15
43745;BME280;29359;53.048;8.732;2023-06-19T09:46:26;101126.19;;;27.82;48.01
43745;BME280;29359;53.048;8.732;2023-06-19T09:48:33;101126.16;;;27.92;46.96
43745;BME280;29359;53.048;8.732;2023-06-19T09:50:37;101138.34;;;27.78;45.80
43745;BME280;29359;53.048;8.732;2023-06-19T09:52:43;101132.19;;;27.57;46.60
43745;BME280;29359;53.048;8.732;2023-06-19T09:54:45;101133.06;;;27.28;46.89
43745;BME280;29359;53.048;8.732;2023-06-19T09:56:47;101141.06;;;27.01;47.56
43745;BME280;29359;53.048;8.732;2023-06-19T09:58:54;101147.13;;;26.74;49.13
43745;BME280;29359;53.048;8.732;2023-06-19T10:00:58;101151.94;;;26.60;49.60
43745;BME280;29359;53.048;8.732;2023-06-19T10:03:00;101152.50;;;26.54;49.89
43745;BME280;29359;53.048;8.732;2023-06-19T10:05:04;101164.03;;;26.47;49.77
43745;BME280;29359;53.048;8.732;2023-06-19T10:07:15;101163.41;;;26.43;50.02
43745;BME280;29359;53.048;8.732;2023-06-19T10:09:16;101153.78;;;26.50;50.16
43745;BME280;29359;53.048;8.732;2023-06-19T10:11:21;101160.91;;;26.51;49.48
43745;BME280;29359;53.048;8.732;2023-06-19T10:13:31;101161.63;;;26.53;49.54
43745;BME280;29359;53.048;8.732;2023-06-19T10:15:43;101166.59;;;26.48;49.32
43745;BME280;29359;53.048;8.732;2023-06-19T10:18:44;101167.66;;;26.36;50.15
43745;BME280;29359;53.048;8.732;2023-06-19T10:22:32;101167.97;;;26.43;51.82
43745;BME280;29359;53.048;8.732;2023-06-19T10:24:34;101183.00;;;26.56;51.54
43745;BME280;29359;53.048;8.732;2023-06-19T10:26:36;101168.50;;;26.67;52.08
43745;BME280;29359;53.048;8.732;2023-06-19T10:28:39;101176.91;;;26.64;51.63
43745;BME280;29359;53.048;8.732;2023-06-19T10:30:41;101183.56;;;26.50;52.15
43745;BME280;29359;53.048;8.732;2023-06-19T10:32:43;101187.91;;;26.42;53.10
43745;BME280;29359;53.048;8.732;2023-06-19T10:34:46;101187.00;;;26.52;52.29
43745;BME280;29359;53.048;8.732;2023-06-19T10:36:55;101189.63;;;26.43;52.25
43745;BME280;29359;53.048;8.732;2023-06-19T10:38:56;101200.50;;;26.22;52.98
43745;BME280;29359;53.048;8.732;2023-06-19T10:40:58;101202.72;;;26.07;52.96
43745;BME280;29359;53.048;8.732;2023-06-19T10:42:59;101205.00;;;26.12;53.29